sensor_id;sensor_type;location;lat;lon;timestamp;P1;durP1;ratioP1;P2;durP2;ratioP2
84575;SDS011;74800;44.448;18.652;2024-01-16T00:02:41;12.38;;;7.53;;
84575;SDS011;74800;44.448;18.652;2024-01-16T00:06:05;13.52;;;8.02;;
84575;SDS011;74800;44.448;18.652;2024-01-16T00:09:32;18.42;;;7.35;;
84575;SDS011;74800;44.448;18.652;2024-01-16T00:12:56;16.23;;;7.78;;
84575;SDS011;74800;44.448;18.652;2024-01-16T00:16:20;14.68;;;6.13;;
84575;SDS011;74800;44.448;18.652;2024-01-16T00:19:44;12.63;;;6.13;;
84575;SDS011;74800;44.448;18.652;2024-01-16T00:23:08;15.82;;;7.22;;
84575;SDS011;74800;44.448;18.652;2024-01-16T00:26:32;19.45;;;8.18;;
84575;SDS011;74800;44.448;18.652;2024-01-16T00:29:56;15.98;;;7.03;;
84575;SDS011;74800;44.448;18.652;2024-01-16T00:33:20;30.20;;;12.57;;
84575;SDS011;74800;44.448;18.652;2024-01-16T00:36:44;24.00;;;13.82;;
84575;SDS011;74800;44.448;18.652;2024-01-16T00:40:09;32.97;;;16.63;;
84575;SDS011;74800;44.448;18.652;2024-01-16T00:43:33;27.83;;;12.20;;
84575;SDS011;74800;44.448;18.652;2024-01-16T00:46:57;27.65;;;13.23;;
84575;SDS011;74800;44.448;18.652;2024-01-16T00:50:21;16.75;;;9.32;;
84575;SDS011;74800;44.448;18.652;2024-01-16T00:53:45;13.13;;;6.65;;
84575;SDS011;74800;44.448;18.652;2024-01-16T00:57:09;17.13;;;8.38;;
84575;SDS011;74800;44.448;18.652;2024-01-16T01:00:33;43.65;;;19.45;;
84575;SDS011;74800;44.448;18.652;2024-01-16T01:03:57;17.67;;;11.02;;
84575;SDS011;74800;44.448;18.652;2024-01-16T01:07:21;18.02;;;10.10;;
84575;SDS011;74800;44.448;18.652;2024-01-16T01:10:45;12.75;;;9.35;;
84575;SDS011;74800;44.448;18.652;2024-01-16T01:14:09;10.85;;;7.05;;
84575;SDS011;74800;44.448;18.652;2024-01-16T01:17:33;19.25;;;10.02;;
84575;SDS011;74800;44.448;18.652;2024-01-16T01:20:57;8.25;;;5.18;;
84575;SDS011;74800;44.448;18.652;2024-01-16T01:24:22;35.35;;;15.73;;
84575;SDS011;74800;44.448;18.652;2024-01-16T01:27:47;10.65;;;6.72;;
84575;SDS011;74800;44.448;18.652;2024-01-16T01:31:11;8.23;;;5.55;;
84575;SDS011;74800;44.448;18.652;2024-01-16T01:34:35;25.60;;;10.45;;
84575;SDS011;74800;44.448;18.652;2024-01-16T01:37:59;17.85;;;8.35;;
84575;SDS011;74800;44.448;18.652;2024-01-16T01:41:23;8.35;;;4.93;;
84575;SDS011;74800;44.448;18.652;2024-01-16T01:44:48;8.75;;;5.70;;
84575;SDS011;74800;44.448;18.652;2024-01-16T01:48:21;7.28;;;4.93;;
84575;SDS011;74800;44.448;18.652;2024-01-16T01:51:45;8.48;;;6.03;;
84575;SDS011;74800;44.448;18.652;2024-01-16T01:55:13;6.97;;;4.72;;
84575;SDS011;74800;44.448;18.652;2024-01-16T01:58:40;7.35;;;4.05;;
84575;SDS011;74800;44.448;18.652;2024-01-16T02:02:07;7.10;;;4.30;;
84575;SDS011;74800;44.448;18.652;2024-01-16T02:05:31;6.43;;;4.53;;
84575;SDS011;74800;44.448;18.652;2024-01-16T02:08:58;4.38;;;3.85;;
84575;SDS011;74800;44.448;18.652;2024-01-16T02:12:22;4.75;;;3.88;;
84575;SDS011;74800;44.448;18.652;2024-01-16T02:15:48;4.78;;;3.70;;
84575;SDS011;74800;44.448;18.652;2024-01-16T02:19:13;4.28;;;3.13;;
84575;SDS011;74800;44.448;18.652;2024-01-16T02:22:37;5.38;;;3.42;;
84575;SDS011;74800;44.448;18.652;2024-01-16T02:26:02;6.15;;;4.68;;
84575;SDS011;74800;44.448;18.652;2024-01-16T02:29:26;6.90;;;4.35;;
84575;SDS011;74800;44.448;18.652;2024-01-16T02:32:51;6.35;;;5.00;;
84575;SDS011;74800;44.448;18.652;2024-01-16T02:36:15;22.77;;;13.07;;
84575;SDS011;74800;44.448;18.652;2024-01-16T02:39:40;22.85;;;12.75;;
84575;SDS011;74800;44.448;18.652;2024-01-16T02:43:04;18.30;;;9.98;;
84575;SDS011;74800;44.448;18.652;2024-01-16T02:46:28;19.65;;;11.00;;
84575;SDS011;74800;44.448;18.652;2024-01-16T02:49:53;15.32;;;8.98;;
84575;SDS011;74800;44.448;18.652;2024-01-16T02:53:17;20.40;;;10.35;;
84575;SDS011;74800;44.448;18.652;2024-01-16T02:56:41;16.85;;;10.40;;
84575;SDS011;74800;44.448;18.652;2024-01-16T03:03:54;30.48;;;16.48;;
84575;SDS011;74800;44.448;18.652;2024-01-16T03:07:18;47.83;;;23.65;;
84575;SDS011;74800;44.448;18.652;2024-01-16T03:10:43;46.42;;;24.30;;
84575;SDS011;74800;44.448;18.652;2024-01-16T03:14:07;48.85;;;24.52;;
84575;SDS011;74800;44.448;18.652;2024-01-16T03:17:31;48.75;;;24.27;;
84575;SDS011;74800;44.448;18.652;2024-01-16T03:20:55;36.75;;;19.85;;
84575;SDS011;74800;44.448;18.652;2024-01-16T03:24:19;41.75;;;22.80;;
84575;SDS011;74800;44.448;18.652;2024-01-16T03:27:43;44.03;;;23.13;;
84575;SDS011;74800;44.448;18.652;2024-01-16T03:31:08;38.75;;;23.35;;
84575;SDS011;74800;44.448;18.652;2024-01-16T03:34:32;40.22;;;20.70;;
84575;SDS011;74800;44.448;18.652;2024-01-16T03:37:56;37.60;;;16.33;;
84575;SDS011;74800;44.448;18.652;2024-01-16T03:41:20;31.50;;;18.30;;
84575;SDS011;74800;44.448;18.652;2024-01-16T03:44:44;29.20;;;18.90;;
84575;SDS011;74800;44.448;18.652;2024-01-16T03:48:09;32.95;;;17.42;;
84575;SDS011;74800;44.448;18.652;2024-01-16T03:51:33;40.85;;;18.92;;
84575;SDS011;74800;44.448;18.652;2024-01-16T03:54:57;20.05;;;11.93;;
84575;SDS011;74800;44.448;18.652;2024-01-16T03:58:21;19.27;;;10.55;;
84575;SDS011;74800;44.448;18.652;2024-01-16T04:01:45;12.95;;;8.23;;
84575;SDS011;74800;44.448;18.652;2024-01-16T04:05:09;13.27;;;8.88;;
84575;SDS011;74800;44.448;18.652;2024-01-16T04:08:42;13.70;;;8.32;;
84575;SDS011;74800;44.448;18.652;2024-01-16T04:12:09;88.32;;;31.35;;
84575;SDS011;74800;44.448;18.652;2024-01-16T04:15:35;18.63;;;11.70;;
84575;SDS011;74800;44.448;18.652;2024-01-16T04:19:01;13.57;;;8.68;;
84575;SDS011;74800;44.448;18.652;2024-01-16T04:22:25;17.05;;;9.55;;
84575;SDS011;74800;44.448;18.652;2024-01-16T04:25:49;28.65;;;15.77;;
84575;SDS011;74800;44.448;18.652;2024-01-16T04:29:13;30.63;;;15.25;;
84575;SDS011;74800;44.448;18.652;2024-01-16T04:32:37;63.20;;;28.30;;
84575;SDS011;74800;44.448;18.652;2024-01-16T04:36:01;73.78;;;24.92;;
84575;SDS011;74800;44.448;18.652;2024-01-16T04:39:25;24.60;;;10.98;;
84575;SDS011;74800;44.448;18.652;2024-01-16T04:42:49;14.18;;;7.50;;
84575;SDS011;74800;44.448;18.652;2024-01-16T04:46:15;19.63;;;9.70;;
84575;SDS011;74800;44.448;18.652;2024-01-16T04:49:41;26.10;;;12.40;;
84575;SDS011;74800;44.448;18.652;2024-01-16T04:53:05;36.38;;;12.43;;
84575;SDS011;74800;44.448;18.652;2024-01-16T04:56:29;38.20;;;14.60;;
84575;SDS011;74800;44.448;18.652;2024-01-16T04:59:53;32.42;;;12.68;;
84575;SDS011;74800;44.448;18.652;2024-01-16T05:03:17;64.68;;;24.38;;
84575;SDS011;74800;44.448;18.652;2024-01-16T05:06:41;33.92;;;14.88;;
84575;SDS011;74800;44.448;18.652;2024-01-16T05:10:06;42.47;;;17.27;;
84575;SDS011;74800;44.448;18.652;2024-01-16T05:13:30;38.33;;;15.60;;
84575;SDS011;74800;44.448;18.652;2024-01-16T05:16:54;35.17;;;16.17;;
84575;SDS011;74800;44.448;18.652;2024-01-16T05:20:18;36.58;;;15.00;;
84575;SDS011;74800;44.448;18.652;2024-01-16T05:23:42;33.80;;;14.32;;
84575;SDS011;74800;44.448;18.652;2024-01-16T05:27:07;38.05;;;15.30;;
84575;SDS011;74800;44.448;18.652;2024-01-16T05:30:31;32.88;;;16.13;;
84575;SDS011;74800;44.448;18.652;2024-01-16T05:33:55;33.50;;;18.00;;
84575;SDS011;74800;44.448;18.652;2024-01-16T05:37:19;36.28;;;19.63;;
84575;SDS011;74800;44.448;18.652;2024-01-16T05:40:43;37.80;;;19.10;;
84575;SDS011;74800;44.448;18.652;2024-01-16T05:44:07;46.72;;;25.92;;
84575;SDS011;74800;44.448;18.652;2024-01-16T05:47:32;47.35;;;25.08;;
84575;SDS011;74800;44.448;18.652;2024-01-16T05:50:56;52.53;;;26.38;;
84575;SDS011;74800;44.448;18.652;2024-01-16T05:54:20;72.15;;;30.02;;
84575;SDS011;74800;44.448;18.652;2024-01-16T05:57:46;60.10;;;26.58;;
84575;SDS011;74800;44.448;18.652;2024-01-16T06:01:10;83.55;;;35.47;;
84575;SDS011;74800;44.448;18.652;2024-01-16T06:04:36;98.18;;;38.28;;
84575;SDS011;74800;44.448;18.652;2024-01-16T06:08:00;64.75;;;29.33;;
84575;SDS011;74800;44.448;18.652;2024-01-16T06:11:33;70.63;;;30.30;;
84575;SDS011;74800;44.448;18.652;2024-01-16T06:14:57;71.22;;;32.65;;
84575;SDS011;74800;44.448;18.652;2024-01-16T06:18:22;66.63;;;29.52;;
84575;SDS011;74800;44.448;18.652;2024-01-16T06:21:46;59.78;;;34.00;;
84575;SDS011;74800;44.448;18.652;2024-01-16T06:25:10;112.88;;;46.42;;
84575;SDS011;74800;44.448;18.652;2024-01-16T06:28:34;103.45;;;48.20;;
84575;SDS011;74800;44.448;18.652;2024-01-16T06:31:58;83.68;;;37.88;;
84575;SDS011;74800;44.448;18.652;2024-01-16T06:35:23;92.30;;;44.00;;
84575;SDS011;74800;44.448;18.652;2024-01-16T06:38:47;116.13;;;49.83;;
84575;SDS011;74800;44.448;18.652;2024-01-16T06:42:11;103.43;;;45.75;;
84575;SDS011;74800;44.448;18.652;2024-01-16T06:45:36;124.28;;;55.38;;
84575;SDS011;74800;44.448;18.652;2024-01-16T06:49:00;132.82;;;53.58;;
84575;SDS011;74800;44.448;18.652;2024-01-16T06:52:24;134.98;;;53.50;;
84575;SDS011;74800;44.448;18.652;2024-01-16T06:55:48;182.50;;;67.45;;
84575;SDS011;74800;44.448;18.652;2024-01-16T06:59:14;198.48;;;72.90;;
84575;SDS011;74800;44.448;18.652;2024-01-16T07:02:39;136.90;;;61.00;;
84575;SDS011;74800;44.448;18.652;2024-01-16T07:06:03;160.85;;;67.47;;
84575;SDS011;74800;44.448;18.652;2024-01-16T07:09:28;80.00;;;39.25;;
84575;SDS011;74800;44.448;18.652;2024-01-16T07:12:52;104.18;;;48.65;;
84575;SDS011;74800;44.448;18.652;2024-01-16T07:16:16;98.93;;;43.88;;
84575;SDS011;74800;44.448;18.652;2024-01-16T07:19:40;138.65;;;58.10;;
84575;SDS011;74800;44.448;18.652;2024-01-16T07:23:04;137.85;;;55.65;;
84575;SDS011;74800;44.448;18.652;2024-01-16T07:26:29;149.27;;;61.63;;
84575;SDS011;74800;44.448;18.652;2024-01-16T07:29:53;75.88;;;37.05;;
84575;SDS011;74800;44.448;18.652;2024-01-16T07:33:17;81.28;;;39.33;;
84575;SDS011;74800;44.448;18.652;2024-01-16T07:36:46;84.47;;;42.25;;
84575;SDS011;74800;44.448;18.652;2024-01-16T07:40:10;125.28;;;59.40;;
84575;SDS011;74800;44.448;18.652;2024-01-16T07:43:37;85.70;;;39.42;;
84575;SDS011;74800;44.448;18.652;2024-01-16T07:47:01;67.93;;;32.35;;
84575;SDS011;74800;44.448;18.652;2024-01-16T07:50:25;108.75;;;48.20;;
84575;SDS011;74800;44.448;18.652;2024-01-16T07:53:51;102.38;;;46.47;;
84575;SDS011;74800;44.448;18.652;2024-01-16T07:57:15;141.25;;;62.00;;
84575;SDS011;74800;44.448;18.652;2024-01-16T08:00:39;180.40;;;84.00;;
84575;SDS011;74800;44.448;18.652;2024-01-16T08:04:03;187.55;;;90.50;;
84575;SDS011;74800;44.448;18.652;2024-01-16T08:07:28;207.38;;;96.47;;
84575;SDS011;74800;44.448;18.652;2024-01-16T08:10:53;248.45;;;114.65;;
84575;SDS011;74800;44.448;18.652;2024-01-16T08:14:17;116.72;;;58.63;;
84575;SDS011;74800;44.448;18.652;2024-01-16T08:17:41;134.68;;;70.63;;
84575;SDS011;74800;44.448;18.652;2024-01-16T08:21:05;134.05;;;68.38;;
84575;SDS011;74800;44.448;18.652;2024-01-16T08:24:30;141.52;;;75.47;;
84575;SDS011;74800;44.448;18.652;2024-01-16T08:27:54;166.23;;;80.25;;
84575;SDS011;74800;44.448;18.652;2024-01-16T08:31:18;169.13;;;88.43;;
84575;SDS011;74800;44.448;18.652;2024-01-16T08:34:42;145.00;;;73.45;;
84575;SDS011;74800;44.448;18.652;2024-01-16T08:38:06;141.80;;;68.93;;
84575;SDS011;74800;44.448;18.652;2024-01-16T08:41:31;125.70;;;62.95;;
84575;SDS011;74800;44.448;18.652;2024-01-16T08:44:55;72.28;;;39.47;;
84575;SDS011;74800;44.448;18.652;2024-01-16T08:48:19;77.72;;;41.63;;
84575;SDS011;74800;44.448;18.652;2024-01-16T08:51:44;79.97;;;43.47;;
84575;SDS011;74800;44.448;18.652;2024-01-16T08:55:08;83.10;;;41.92;;
84575;SDS011;74800;44.448;18.652;2024-01-16T08:58:33;84.30;;;48.20;;
84575;SDS011;74800;44.448;18.652;2024-01-16T09:01:57;108.05;;;56.28;;
84575;SDS011;74800;44.448;18.652;2024-01-16T09:05:22;116.70;;;64.72;;
84575;SDS011;74800;44.448;18.652;2024-01-16T09:07:50;96.68;;;53.65;;
84575;SDS011;74800;44.448;18.652;2024-01-16T09:10:19;90.57;;;49.60;;
84575;SDS011;74800;44.448;18.652;2024-01-16T09:12:45;132.75;;;72.30;;
84575;SDS011;74800;44.448;18.652;2024-01-16T09:17:36;130.20;;;67.03;;
84575;SDS011;74800;44.448;18.652;2024-01-16T09:22:27;127.40;;;67.45;;
84575;SDS011;74800;44.448;18.652;2024-01-16T09:24:54;108.90;;;57.08;;
84575;SDS011;74800;44.448;18.652;2024-01-16T09:29:45;155.32;;;75.43;;
84575;SDS011;74800;44.448;18.652;2024-01-16T09:34:36;117.45;;;58.10;;
84575;SDS011;74800;44.448;18.652;2024-01-16T09:38:00;67.75;;;35.33;;
84575;SDS011;74800;44.448;18.652;2024-01-16T09:41:28;65.32;;;34.30;;
84575;SDS011;74800;44.448;18.652;2024-01-16T09:44:52;67.38;;;28.52;;
84575;SDS011;74800;44.448;18.652;2024-01-16T09:48:21;57.30;;;28.17;;
84575;SDS011;74800;44.448;18.652;2024-01-16T09:51:45;33.13;;;20.10;;
84575;SDS011;74800;44.448;18.652;2024-01-16T09:55:13;34.05;;;20.10;;
84575;SDS011;74800;44.448;18.652;2024-01-16T09:58:41;35.53;;;20.45;;
84575;SDS011;74800;44.448;18.652;2024-01-16T10:02:09;30.02;;;16.00;;
84575;SDS011;74800;44.448;18.652;2024-01-16T10:05:37;22.30;;;12.82;;
84575;SDS011;74800;44.448;18.652;2024-01-16T10:09:03;20.23;;;10.13;;
84575;SDS011;74800;44.448;18.652;2024-01-16T10:12:27;30.90;;;16.05;;
84575;SDS011;74800;44.448;18.652;2024-01-16T10:15:52;23.73;;;13.60;;
84575;SDS011;74800;44.448;18.652;2024-01-16T10:19:23;19.25;;;11.75;;
84575;SDS011;74800;44.448;18.652;2024-01-16T10:22:59;18.92;;;9.48;;
84575;SDS011;74800;44.448;18.652;2024-01-16T10:26:35;33.80;;;16.23;;
84575;SDS011;74800;44.448;18.652;2024-01-16T10:30:00;12.15;;;7.85;;
84575;SDS011;74800;44.448;18.652;2024-01-16T10:33:28;12.98;;;8.93;;
84575;SDS011;74800;44.448;18.652;2024-01-16T10:36:58;15.55;;;8.98;;
84575;SDS011;74800;44.448;18.652;2024-01-16T10:40:22;13.15;;;7.97;;
84575;SDS011;74800;44.448;18.652;2024-01-16T10:43:55;14.10;;;9.52;;
84575;SDS011;74800;44.448;18.652;2024-01-16T10:47:22;22.13;;;12.15;;
84575;SDS011;74800;44.448;18.652;2024-01-16T10:50:46;23.27;;;12.07;;
84575;SDS011;74800;44.448;18.652;2024-01-16T10:54:16;14.40;;;7.30;;
84575;SDS011;74800;44.448;18.652;2024-01-16T10:57:50;15.63;;;9.15;;
84575;SDS011;74800;44.448;18.652;2024-01-16T11:01:22;17.45;;;9.80;;
84575;SDS011;74800;44.448;18.652;2024-01-16T11:04:49;14.10;;;8.10;;
84575;SDS011;74800;44.448;18.652;2024-01-16T11:08:14;20.08;;;8.70;;
84575;SDS011;74800;44.448;18.652;2024-01-16T11:11:45;10.95;;;8.00;;
84575;SDS011;74800;44.448;18.652;2024-01-16T11:15:10;12.27;;;7.15;;
84575;SDS011;74800;44.448;18.652;2024-01-16T11:18:38;16.42;;;8.32;;
84575;SDS011;74800;44.448;18.652;2024-01-16T11:22:02;13.63;;;7.18;;
84575;SDS011;74800;44.448;18.652;2024-01-16T11:25:33;13.43;;;6.95;;
84575;SDS011;74800;44.448;18.652;2024-01-16T11:28:58;16.95;;;8.73;;
84575;SDS011;74800;44.448;18.652;2024-01-16T11:32:39;24.75;;;10.48;;
84575;SDS011;74800;44.448;18.652;2024-01-16T11:36:03;22.88;;;11.07;;
84575;SDS011;74800;44.448;18.652;2024-01-16T11:39:30;10.43;;;6.68;;
84575;SDS011;74800;44.448;18.652;2024-01-16T11:42:57;7.50;;;4.38;;
84575;SDS011;74800;44.448;18.652;2024-01-16T11:46:21;10.55;;;5.18;;
84575;SDS011;74800;44.448;18.652;2024-01-16T11:50:28;12.23;;;5.05;;
84575;SDS011;74800;44.448;18.652;2024-01-16T11:53:59;5.60;;;3.83;;
84575;SDS011;74800;44.448;18.652;2024-01-16T12:01:18;13.55;;;7.20;;
84575;SDS011;74800;44.448;18.652;2024-01-16T12:04:53;3.67;;;2.57;;
84575;SDS011;74800;44.448;18.652;2024-01-16T12:08:23;10.73;;;5.85;;
84575;SDS011;74800;44.448;18.652;2024-01-16T12:11:57;7.47;;;4.57;;
84575;SDS011;74800;44.448;18.652;2024-01-16T12:15:23;4.63;;;2.70;;
84575;SDS011;74800;44.448;18.652;2024-01-16T12:18:47;4.45;;;3.45;;
84575;SDS011;74800;44.448;18.652;2024-01-16T12:22:14;6.88;;;4.18;;
84575;SDS011;74800;44.448;18.652;2024-01-16T12:25:38;7.20;;;3.58;;
84575;SDS011;74800;44.448;18.652;2024-01-16T12:29:03;8.52;;;3.65;;
84575;SDS011;74800;44.448;18.652;2024-01-16T12:32:32;5.53;;;3.70;;
84575;SDS011;74800;44.448;18.652;2024-01-16T12:36:03;8.75;;;4.07;;
84575;SDS011;74800;44.448;18.652;2024-01-16T12:39:32;6.40;;;3.65;;
84575;SDS011;74800;44.448;18.652;2024-01-16T12:42:57;6.43;;;2.95;;
84575;SDS011;74800;44.448;18.652;2024-01-16T12:46:21;5.43;;;2.83;;
84575;SDS011;74800;44.448;18.652;2024-01-16T12:49:46;7.28;;;3.80;;
84575;SDS011;74800;44.448;18.652;2024-01-16T12:53:11;4.00;;;2.92;;
84575;SDS011;74800;44.448;18.652;2024-01-16T12:56:39;8.13;;;3.60;;
84575;SDS011;74800;44.448;18.652;2024-01-16T13:03:51;3.00;;;2.38;;
84575;SDS011;74800;44.448;18.652;2024-01-16T13:07:23;5.50;;;2.50;;
84575;SDS011;74800;44.448;18.652;2024-01-16T13:11:05;5.20;;;2.38;;
84575;SDS011;74800;44.448;18.652;2024-01-16T13:14:29;4.03;;;2.03;;
84575;SDS011;74800;44.448;18.652;2024-01-16T13:17:54;3.78;;;2.35;;
84575;SDS011;74800;44.448;18.652;2024-01-16T13:21:25;4.53;;;3.28;;
84575;SDS011;74800;44.448;18.652;2024-01-16T13:24:49;2.30;;;2.10;;
84575;SDS011;74800;44.448;18.652;2024-01-16T13:28:14;2.53;;;2.10;;
84575;SDS011;74800;44.448;18.652;2024-01-16T13:31:38;8.45;;;2.92;;
84575;SDS011;74800;44.448;18.652;2024-01-16T13:35:03;3.22;;;2.20;;
84575;SDS011;74800;44.448;18.652;2024-01-16T13:38:29;5.75;;;3.38;;
84575;SDS011;74800;44.448;18.652;2024-01-16T13:41:54;3.30;;;2.22;;
84575;SDS011;74800;44.448;18.652;2024-01-16T13:45:18;2.45;;;2.25;;
84575;SDS011;74800;44.448;18.652;2024-01-16T13:48:43;3.70;;;2.70;;
84575;SDS011;74800;44.448;18.652;2024-01-16T13:52:07;4.85;;;3.35;;
84575;SDS011;74800;44.448;18.652;2024-01-16T13:55:32;2.88;;;2.00;;
84575;SDS011;74800;44.448;18.652;2024-01-16T13:58:56;4.95;;;3.38;;
84575;SDS011;74800;44.448;18.652;2024-01-16T14:02:20;3.35;;;2.92;;
84575;SDS011;74800;44.448;18.652;2024-01-16T14:05:45;7.65;;;5.57;;
84575;SDS011;74800;44.448;18.652;2024-01-16T14:09:09;10.23;;;9.07;;
84575;SDS011;74800;44.448;18.652;2024-01-16T14:12:41;7.32;;;3.85;;
84575;SDS011;74800;44.448;18.652;2024-01-16T14:16:05;3.90;;;3.17;;
84575;SDS011;74800;44.448;18.652;2024-01-16T14:19:29;4.30;;;2.83;;
84575;SDS011;74800;44.448;18.652;2024-01-16T14:22:53;5.78;;;3.15;;
84575;SDS011;74800;44.448;18.652;2024-01-16T14:26:17;3.28;;;2.95;;
84575;SDS011;74800;44.448;18.652;2024-01-16T14:29:41;5.57;;;2.55;;
84575;SDS011;74800;44.448;18.652;2024-01-16T14:34:33;2.75;;;2.50;;
84575;SDS011;74800;44.448;18.652;2024-01-16T14:39:24;5.65;;;4.10;;
84575;SDS011;74800;44.448;18.652;2024-01-16T14:41:56;5.90;;;3.80;;
84575;SDS011;74800;44.448;18.652;2024-01-16T14:44:23;2.75;;;2.05;;
84575;SDS011;74800;44.448;18.652;2024-01-16T14:49:14;7.38;;;3.40;;
84575;SDS011;74800;44.448;18.652;2024-01-16T14:51:41;14.70;;;6.15;;
84575;SDS011;74800;44.448;18.652;2024-01-16T14:56:32;15.82;;;4.93;;
84575;SDS011;74800;44.448;18.652;2024-01-16T14:58:58;7.18;;;2.60;;
84575;SDS011;74800;44.448;18.652;2024-01-16T15:01:24;8.63;;;3.58;;
84575;SDS011;74800;44.448;18.652;2024-01-16T15:06:15;2.92;;;2.38;;
84575;SDS011;74800;44.448;18.652;2024-01-16T15:08:42;4.50;;;2.78;;
84575;SDS011;74800;44.448;18.652;2024-01-16T15:11:09;2.35;;;1.95;;
84575;SDS011;74800;44.448;18.652;2024-01-16T15:13:35;3.20;;;2.65;;
84575;SDS011;74800;44.448;18.652;2024-01-16T15:16:02;10.35;;;6.18;;
84575;SDS011;74800;44.448;18.652;2024-01-16T15:20:53;9.98;;;6.38;;
84575;SDS011;74800;44.448;18.652;2024-01-16T15:25:44;24.88;;;9.73;;
84575;SDS011;74800;44.448;18.652;2024-01-16T15:30:35;26.63;;;12.80;;
84575;SDS011;74800;44.448;18.652;2024-01-16T15:35:29;18.80;;;9.35;;
84575;SDS011;74800;44.448;18.652;2024-01-16T15:37:55;22.55;;;8.90;;
84575;SDS011;74800;44.448;18.652;2024-01-16T15:42:48;27.05;;;12.10;;
84575;SDS011;74800;44.448;18.652;2024-01-16T15:47:40;19.70;;;9.95;;
84575;SDS011;74800;44.448;18.652;2024-01-16T15:51:04;43.53;;;17.38;;
84575;SDS011;74800;44.448;18.652;2024-01-16T15:54:28;36.28;;;14.93;;
84575;SDS011;74800;44.448;18.652;2024-01-16T15:57:52;38.15;;;18.20;;
84575;SDS011;74800;44.448;18.652;2024-01-16T16:00:19;48.78;;;24.73;;
84575;SDS011;74800;44.448;18.652;2024-01-16T16:05:13;196.68;;;49.92;;
84575;SDS011;74800;44.448;18.652;2024-01-16T16:10:04;282.33;;;83.28;;
84575;SDS011;74800;44.448;18.652;2024-01-16T16:12:31;258.20;;;86.80;;
84575;SDS011;74800;44.448;18.652;2024-01-16T16:17:22;121.47;;;45.97;;
84575;SDS011;74800;44.448;18.652;2024-01-16T16:22:14;113.72;;;47.40;;
84575;SDS011;74800;44.448;18.652;2024-01-16T16:24:41;119.30;;;51.42;;
84575;SDS011;74800;44.448;18.652;2024-01-16T16:29:54;124.90;;;54.45;;
84575;SDS011;74800;44.448;18.652;2024-01-16T16:32:21;173.63;;;71.60;;
84575;SDS011;74800;44.448;18.652;2024-01-16T16:34:47;158.77;;;63.35;;
84575;SDS011;74800;44.448;18.652;2024-01-16T16:37:14;172.98;;;71.32;;
84575;SDS011;74800;44.448;18.652;2024-01-16T16:39:40;81.93;;;33.15;;
84575;SDS011;74800;44.448;18.652;2024-01-16T16:42:07;66.63;;;30.15;;
84575;SDS011;74800;44.448;18.652;2024-01-16T16:44:33;50.05;;;21.95;;
84575;SDS011;74800;44.448;18.652;2024-01-16T16:49:24;218.27;;;78.82;;
84575;SDS011;74800;44.448;18.652;2024-01-16T16:54:15;110.13;;;43.95;;
84575;SDS011;74800;44.448;18.652;2024-01-16T16:56:41;81.43;;;34.33;;
84575;SDS011;74800;44.448;18.652;2024-01-16T16:59:07;73.72;;;26.40;;
84575;SDS011;74800;44.448;18.652;2024-01-16T17:01:34;196.02;;;72.95;;
84575;SDS011;74800;44.448;18.652;2024-01-16T17:04:03;389.48;;;154.13;;
84575;SDS011;74800;44.448;18.652;2024-01-16T17:06:29;472.65;;;179.68;;
84575;SDS011;74800;44.448;18.652;2024-01-16T17:11:20;440.15;;;160.07;;
84575;SDS011;74800;44.448;18.652;2024-01-16T17:16:11;342.73;;;127.13;;
84575;SDS011;74800;44.448;18.652;2024-01-16T17:18:37;330.85;;;121.72;;
84575;SDS011;74800;44.448;18.652;2024-01-16T17:21:05;205.65;;;76.00;;
84575;SDS011;74800;44.448;18.652;2024-01-16T17:23:32;326.85;;;121.50;;
84575;SDS011;74800;44.448;18.652;2024-01-16T17:25:59;377.50;;;137.30;;
84575;SDS011;74800;44.448;18.652;2024-01-16T17:28:28;348.73;;;130.77;;
84575;SDS011;74800;44.448;18.652;2024-01-16T17:30:54;378.02;;;148.65;;
84575;SDS011;74800;44.448;18.652;2024-01-16T17:33:21;325.65;;;125.93;;
84575;SDS011;74800;44.448;18.652;2024-01-16T17:35:47;335.75;;;136.68;;
84575;SDS011;74800;44.448;18.652;2024-01-16T17:38:13;249.02;;;104.10;;
84575;SDS011;74800;44.448;18.652;2024-01-16T17:40:39;324.30;;;122.22;;
84575;SDS011;74800;44.448;18.652;2024-01-16T17:45:30;262.70;;;106.78;;
84575;SDS011;74800;44.448;18.652;2024-01-16T17:47:58;291.38;;;110.53;;
84575;SDS011;74800;44.448;18.652;2024-01-16T17:50:26;277.33;;;108.03;;
84575;SDS011;74800;44.448;18.652;2024-01-16T17:52:52;256.02;;;99.47;;
84575;SDS011;74800;44.448;18.652;2024-01-16T17:55:18;250.27;;;102.88;;
84575;SDS011;74800;44.448;18.652;2024-01-16T17:57:44;257.52;;;102.80;;
84575;SDS011;74800;44.448;18.652;2024-01-16T18:00:11;241.48;;;93.07;;
84575;SDS011;74800;44.448;18.652;2024-01-16T18:02:37;221.48;;;87.30;;
84575;SDS011;74800;44.448;18.652;2024-01-16T18:05:04;234.63;;;85.03;;
84575;SDS011;74800;44.448;18.652;2024-01-16T18:07:36;221.35;;;84.55;;
84575;SDS011;74800;44.448;18.652;2024-01-16T18:10:02;231.13;;;83.43;;
84575;SDS011;74800;44.448;18.652;2024-01-16T18:12:35;255.63;;;96.07;;
84575;SDS011;74800;44.448;18.652;2024-01-16T18:15:07;235.48;;;89.35;;
84575;SDS011;74800;44.448;18.652;2024-01-16T18:17:42;219.52;;;86.68;;
84575;SDS011;74800;44.448;18.652;2024-01-16T18:20:10;182.85;;;75.10;;
84575;SDS011;74800;44.448;18.652;2024-01-16T18:22:45;216.65;;;84.03;;
84575;SDS011;74800;44.448;18.652;2024-01-16T18:25:13;245.95;;;93.97;;
84575;SDS011;74800;44.448;18.652;2024-01-16T18:27:42;240.20;;;90.40;;
84575;SDS011;74800;44.448;18.652;2024-01-16T18:30:12;268.20;;;94.93;;
84575;SDS011;74800;44.448;18.652;2024-01-16T18:32:41;405.25;;;135.68;;
84575;SDS011;74800;44.448;18.652;2024-01-16T18:35:12;435.85;;;143.10;;
84575;SDS011;74800;44.448;18.652;2024-01-16T18:37:39;418.38;;;132.93;;
84575;SDS011;74800;44.448;18.652;2024-01-16T18:40:11;450.33;;;139.88;;
84575;SDS011;74800;44.448;18.652;2024-01-16T18:42:39;399.20;;;123.63;;
84575;SDS011;74800;44.448;18.652;2024-01-16T18:45:05;259.52;;;95.13;;
84575;SDS011;74800;44.448;18.652;2024-01-16T18:47:33;187.38;;;72.10;;
84575;SDS011;74800;44.448;18.652;2024-01-16T18:50:01;172.65;;;64.88;;
84575;SDS011;74800;44.448;18.652;2024-01-16T18:52:27;151.02;;;58.60;;
84575;SDS011;74800;44.448;18.652;2024-01-16T18:57:19;165.80;;;68.07;;
84575;SDS011;74800;44.448;18.652;2024-01-16T18:59:44;176.00;;;68.18;;
84575;SDS011;74800;44.448;18.652;2024-01-16T19:02:10;229.35;;;79.47;;
84575;SDS011;74800;44.448;18.652;2024-01-16T19:04:37;211.20;;;75.28;;
84575;SDS011;74800;44.448;18.652;2024-01-16T19:09:40;230.10;;;87.75;;
84575;SDS011;74800;44.448;18.652;2024-01-16T19:12:09;248.68;;;95.78;;
84575;SDS011;74800;44.448;18.652;2024-01-16T19:14:37;229.18;;;84.80;;
84575;SDS011;74800;44.448;18.652;2024-01-16T19:17:03;182.35;;;71.95;;
84575;SDS011;74800;44.448;18.652;2024-01-16T19:19:29;224.43;;;77.60;;
84575;SDS011;74800;44.448;18.652;2024-01-16T19:21:54;208.68;;;76.75;;
84575;SDS011;74800;44.448;18.652;2024-01-16T19:24:25;204.52;;;77.93;;
84575;SDS011;74800;44.448;18.652;2024-01-16T19:26:52;186.95;;;73.57;;